Time;durP1;ratioP1;P1;durP2;ratioP2;P2;SDS_P1;SDS_P2;PMS_P1;PMS_P2;Temp;Humidity;BMP_temperature;BMP_pressure;BME280_temperature;BME280_humidity;BME280_pressure;Samples;Min_cycle;Max_cycle;Signal;HPM_P1;HPM_P2
2022/09/16 00:01:36;;;;;;;6.88;0.80;;;11.70;99.90;;;;;;5066036;28;20117;-73
2022/09/16 00:04:02;;;;;;;6.07;0.95;;;11.70;99.90;;;;;;5063077;28;20041;-74
2022/09/16 00:06:28;;;;;;;10.18;1.45;;;11.70;99.90;;;;;;5066583;28;20048;-74
2022/09/16 00:08:56;;;;;;;3.88;0.70;;;11.70;99.90;;;;;;5080871;28;20441;-73
2022/09/16 00:11:22;;;;;;;5.65;0.90;;;11.70;99.90;;;;;;5065451;28;20048;-74
2022/09/16 00:13:48;;;;;;;4.47;0.63;;;11.70;99.90;;;;;;5063281;28;20059;-74
2022/09/16 00:16:23;;;;;;;3.30;0.80;;;11.70;99.90;;;;;;5048399;28;20654;-73
2022/09/16 00:18:53;;;;;;;7.15;0.75;;;11.70;99.90;;;;;;5060649;28;20644;-74
2022/09/16 00:21:19;;;;;;;5.20;1.00;;;11.80;99.90;;;;;;5063434;28;20064;-74
2022/09/16 00:23:44;;;;;;;6.68;0.85;;;11.70;99.90;;;;;;5066569;28;20393;-74
2022/09/16 00:26:10;;;;;;;7.57;0.80;;;11.70;99.90;;;;;;5048249;28;20044;-73
2022/09/16 00:28:36;;;;;;;3.75;0.63;;;11.70;99.90;;;;;;5060680;28;20471;-74
2022/09/16 00:31:02;;;;;;;3.17;0.80;;;11.70;99.90;;;;;;5064458;28;20040;-73
2022/09/16 00:33:28;;;;;;;5.38;1.02;;;11.70;99.90;;;;;;5047302;28;20134;-74
2022/09/16 00:36:15;;;;;;;3.50;0.60;;;11.70;99.90;;;;;;5067377;28;20131;-73
2022/09/16 00:38:41;;;;;;;4.32;0.70;;;11.70;99.90;;;;;;5066187;28;20049;-73
2022/09/16 00:41:13;;;;;;;7.20;1.15;;;11.70;99.90;;;;;;5065006;28;20068;-73
2022/09/16 00:44:00;;;;;;;6.78;1.10;;;11.70;99.90;;;;;;5048667;28;20048;-74
2022/09/16 00:46:33;;;;;;;3.55;0.68;;;11.70;99.90;;;;;;5063689;28;20041;-74
2022/09/16 00:49:17;;;;;;;8.15;0.90;;;11.70;99.90;;;;;;5063820;28;20524;-74
2022/09/16 00:51:46;;;;;;;3.72;0.70;;;11.70;99.90;;;;;;5075355;28;20123;-74
2022/09/16 00:54:14;;;;;;;5.55;1.10;;;11.70;99.90;;;;;;5065704;28;20536;-74
2022/09/16 00:56:44;;;;;;;5.88;0.82;;;11.80;99.90;;;;;;5066878;28;20120;-74
2022/09/16 00:59:16;;;;;;;2.58;0.70;;;11.70;99.90;;;;;;5064596;28;20048;-74
2022/09/16 01:01:43;;;;;;;5.45;1.23;;;11.70;99.90;;;;;;5076110;28;20308;-74
2022/09/16 01:04:25;;;;;;;7.95;1.00;;;11.80;99.90;;;;;;5065102;28;20036;-74
2022/09/16 01:06:51;;;;;;;6.00;0.90;;;11.70;99.90;;;;;;5064448;28;20053;-74
2022/09/16 01:09:20;;;;;;;5.85;0.90;;;11.70;99.90;;;;;;5065191;28;20308;-75
2022/09/16 01:11:46;;;;;;;6.93;1.30;;;11.70;99.90;;;;;;5062215;28;20059;-73
2022/09/16 01:17:16;;;;;;;7.32;1.10;;;11.70;99.90;;;;;;5055875;28;20060;-74
2022/09/16 01:19:45;;;;;;;4.45;0.95;;;11.60;99.90;;;;;;5072051;28;20070;-74
2022/09/16 01:22:28;;;;;;;5.93;0.90;;;11.60;99.90;;;;;;5055209;28;20060;-74
2022/09/16 01:25:11;;;;;;;5.45;0.98;;;11.80;99.90;;;;;;5064341;28;20562;-74
2022/09/16 01:27:51;;;;;;;7.00;0.80;;;11.50;99.90;;;;;;5063445;28;20040;-74
2022/09/16 01:30:20;;;;;;;4.63;0.90;;;11.50;99.90;;;;;;5061624;28;20044;-73
2022/09/16 01:32:51;;;;;;;3.85;1.05;;;11.50;99.90;;;;;;5073740;28;20040;-74
2022/09/16 01:35:20;;;;;;;;;;;11.50;99.90;;;;;;5058877;28;20569;-74
2022/09/16 01:38:04;;;;;;;4.72;0.93;;;11.50;99.90;;;;;;5074302;28;19963;-75
2022/09/16 01:40:54;;;;;;;4.43;0.82;;;11.50;99.90;;;;;;5060095;28;20205;-75
2022/09/16 01:43:41;;;;;;;4.03;0.80;;;11.50;99.90;;;;;;5064007;28;20051;-75
2022/09/16 01:46:42;;;;;;;3.90;0.80;;;11.40;99.90;;;;;;5061441;28;20040;-74
2022/09/16 01:49:25;;;;;;;7.00;1.17;;;11.40;99.90;;;;;;5049055;28;20490;-74
2022/09/16 01:52:23;;;;;;;6.47;0.85;;;11.60;99.90;;;;;;5062087;28;20306;-74
2022/09/16 01:55:12;;;;;;;2.95;0.65;;;11.40;99.90;;;;;;5061174;28;20098;-74
2022/09/16 01:58:10;;;;;;;6.63;0.93;;;11.40;99.90;;;;;;5062883;28;20127;-73
2022/09/16 02:00:38;;;;;;;6.25;0.90;;;11.30;99.90;;;;;;5018749;28;20047;-74
2022/09/16 02:03:12;;;;;;;6.05;1.02;;;11.30;99.90;;;;;;5061870;28;20873;-73
2022/09/16 02:05:47;;;;;;;4.22;0.90;;;11.30;99.90;;;;;;5076387;28;20050;-74
2022/09/16 02:08:18;;;;;;;7.30;1.17;;;11.30;99.90;;;;;;5055550;28;20767;-74
2022/09/16 02:10:49;;;;;;;;;;;11.30;99.90;;;;;;5062990;28;20052;-73
2022/09/16 02:13:40;;;;;;;4.60;0.63;;;11.30;99.90;;;;;;5062754;28;19928;-74
2022/09/16 02:16:24;;;;;;;4.68;0.95;;;11.30;99.90;;;;;;5058962;28;20051;-74
2022/09/16 02:18:54;;;;;;;4.43;1.10;;;11.30;99.90;;;;;;5064157;28;20053;-74
2022/09/16 02:21:26;;;;;;;3.22;0.90;;;11.30;99.90;;;;;;5060776;28;20405;-74
2022/09/16 02:23:56;;;;;;;7.65;0.95;;;11.30;99.90;;;;;;5074095;28;20101;-73
2022/09/16 02:26:29;;;;;;;8.00;1.27;;;11.20;99.90;;;;;;5045553;28;20052;-74
2022/09/16 02:28:55;;;;;;;8.80;1.33;;;11.30;99.90;;;;;;5065294;28;20041;-74
2022/09/16 02:31:26;;;;;;;10.43;1.50;;;11.20;99.90;;;;;;5055350;28;20065;-73
2022/09/16 02:33:56;;;;;;;4.95;0.93;;;11.20;99.90;;;;;;5081807;28;20052;-75
2022/09/16 02:36:25;;;;;;;8.80;1.40;;;11.30;99.90;;;;;;5067862;28;20044;-74
2022/09/16 02:39:01;;;;;;;8.00;1.42;;;11.20;99.90;;;;;;5068937;28;20044;-74
2022/09/16 02:41:27;;;;;;;5.30;1.08;;;11.20;99.90;;;;;;5062782;28;20047;-74
2022/09/16 02:43:53;;;;;;;10.60;1.15;;;11.20;99.90;;;;;;5067006;28;20131;-74
2022/09/16 02:46:54;;;;;;;5.25;1.00;;;11.20;99.90;;;;;;5062808;28;20044;-74
2022/09/16 02:49:36;;;;;;;8.83;1.80;;;11.20;99.90;;;;;;5066350;28;20036;-74
2022/09/16 02:52:23;;;;;;;9.65;1.00;;;11.20;99.90;;;;;;5064075;28;20102;-75
2022/09/16 02:55:03;;;;;;;8.60;0.85;;;11.20;99.90;;;;;;5069127;28;20044;-73
2022/09/16 02:57:29;;;;;;;9.32;0.85;;;11.20;99.90;;;;;;5067531;28;20048;-74
2022/09/16 02:59:55;;;;;;;6.00;0.98;;;11.10;99.90;;;;;;5047296;28;20404;-74
2022/09/16 03:02:21;;;;;;;8.75;0.98;;;11.20;99.90;;;;;;5047763;28;20040;-74
2022/09/16 03:04:47;;;;;;;6.28;1.15;;;11.20;99.90;;;;;;5068015;28;20024;-74
2022/09/16 03:07:14;;;;;;;10.02;1.13;;;11.10;99.90;;;;;;5070382;28;20169;-73
2022/09/16 03:09:42;;;;;;;8.98;1.20;;;11.10;99.90;;;;;;5052110;28;20044;-74
2022/09/16 03:12:44;;;;;;;8.45;0.98;;;11.20;99.90;;;;;;5067242;28;20044;-73
2022/09/16 03:15:18;;;;;;;7.75;1.00;;;11.10;99.90;;;;;;5070679;28;20134;-74
2022/09/16 03:18:01;;;;;;;10.82;0.90;;;11.00;99.90;;;;;;5085285;28;20053;-73
2022/09/16 03:20:49;;;;;;;6.45;0.90;;;11.00;99.90;;;;;;5082799;28;20169;-73
2022/09/16 03:23:44;;;;;;;5.88;0.80;;;11.00;99.90;;;;;;5071965;28;20033;-74
2022/09/16 03:26:17;;;;;;;8.82;1.00;;;11.00;99.90;;;;;;5068640;28;20037;-74
2022/09/16 03:29:11;;;;;;;7.35;1.25;;;10.90;99.90;;;;;;5064002;28;20068;-73
2022/09/16 03:32:11;;;;;;;7.72;0.95;;;10.90;99.90;;;;;;5068989;28;20057;-74
2022/09/16 03:35:26;;;;;;;6.68;1.10;;;10.90;99.90;;;;;;5042587;28;20159;-74
2022/09/16 03:37:55;;;;;;;10.38;1.23;;;10.80;99.90;;;;;;5057173;28;20521;-74
2022/09/16 03:40:22;;;;;;;7.68;1.02;;;10.80;99.90;;;;;;5070006;28;20368;-74
2022/09/16 03:42:47;;;;;;;7.30;1.33;;;10.80;99.90;;;;;;5076702;28;20043;-74
2022/09/16 03:45:17;;;;;;;6.40;0.90;;;10.80;99.90;;;;;;5065325;28;20040;-75
2022/09/16 03:47:45;;;;;;;8.85;1.00;;;10.80;99.90;;;;;;5063862;28;20040;-74
2022/09/16 03:50:10;;;;;;;6.15;1.27;;;10.70;99.90;;;;;;5063912;28;20037;-74
2022/09/16 03:52:36;;;;;;;4.80;0.93;;;10.70;99.90;;;;;;5061239;28;20047;-74
2022/09/16 03:55:02;;;;;;;6.03;0.82;;;10.70;99.90;;;;;;5062690;28;20067;-74
2022/09/16 03:57:29;;;;;;;9.45;1.20;;;10.70;99.90;;;;;;5064601;28;20073;-75
2022/09/16 03:59:55;;;;;;;10.70;1.15;;;10.70;99.90;;;;;;5065233;28;20041;-74
2022/09/16 04:02:21;;;;;;;8.85;1.13;;;10.70;99.90;;;;;;5064976;28;20473;-74
2022/09/16 04:04:46;;;;;;;4.72;0.82;;;10.70;99.90;;;;;;5065793;28;20044;-74
2022/09/16 04:07:12;;;;;;;6.25;0.80;;;10.70;99.90;;;;;;5064942;28;20154;-74
2022/09/16 04:09:37;;;;;;;7.65;1.00;;;10.60;99.90;;;;;;5047683;28;20126;-74
2022/09/16 04:12:06;;;;;;;8.32;1.08;;;10.60;99.90;;;;;;5048056;28;20045;-75
2022/09/16 04:14:32;;;;;;;6.82;1.25;;;10.60;99.90;;;;;;5060150;28;20055;-74
2022/09/16 04:16:58;;;;;;;6.78;1.20;;;10.60;99.90;;;;;;5043715;28;20056;-74
2022/09/16 04:19:24;;;;;;;5.60;1.08;;;10.80;99.90;;;;;;5064758;28;20099;-75
2022/09/16 04:21:50;;;;;;;7.40;1.00;;;10.90;99.90;;;;;;5060917;28;20120;-74
2022/09/16 04:24:16;;;;;;;7.25;0.90;;;10.50;99.90;;;;;;5060761;28;20123;-74
2022/09/16 04:26:42;;;;;;;10.52;1.45;;;10.50;99.90;;;;;;5044176;28;20098;-75
2022/09/16 04:29:08;;;;;;;6.72;1.02;;;10.50;99.90;;;;;;5074439;28;20036;-75
2022/09/16 04:31:34;;;;;;;8.07;1.27;;;10.50;99.90;;;;;;5059220;28;20044;-74
2022/09/16 04:34:03;;;;;;;8.45;1.38;;;10.50;99.90;;;;;;5071261;28;20067;-74
2022/09/16 04:36:33;;;;;;;6.35;1.30;;;10.50;99.90;;;;;;5059401;28;20048;-74
2022/09/16 04:38:59;;;;;;;10.02;1.30;;;10.50;99.90;;;;;;5062192;28;20509;-74
2022/09/16 04:41:26;;;;;;;10.27;1.45;;;10.40;99.90;;;;;;5077655;28;20213;-74
2022/09/16 04:43:57;;;;;;;9.38;1.30;;;10.40;99.90;;;;;;5065182;28;21913;-74
2022/09/16 04:46:25;;;;;;;9.82;1.45;;;10.70;99.90;;;;;;5062631;28;20048;-75
2022/09/16 04:48:52;;;;;;;10.43;1.38;;;10.40;99.90;;;;;;5059942;28;20038;-75
2022/09/16 04:51:19;;;;;;;9.25;1.15;;;10.40;99.90;;;;;;5064460;28;20048;-74
2022/09/16 04:53:45;;;;;;;6.75;0.90;;;10.70;99.90;;;;;;5063406;28;20071;-74
2022/09/16 04:56:14;;;;;;;9.38;1.20;;;10.30;99.90;;;;;;5062776;28;20036;-74
2022/09/16 04:58:51;;;;;;;11.43;1.60;;;10.40;99.90;;;;;;5048291;28;20062;-74
2022/09/16 05:01:23;;;;;;;14.48;1.48;;;10.40;99.90;;;;;;5060738;28;20067;-74
2022/09/16 05:03:54;;;;;;;9.40;1.35;;;10.60;99.90;;;;;;5055654;28;20048;-74
2022/09/16 05:06:22;;;;;;;14.85;1.63;;;10.30;99.90;;;;;;5050167;28;20563;-74
2022/09/16 05:08:49;;;;;;;8.63;1.52;;;10.30;99.90;;;;;;5055391;28;20048;-74
2022/09/16 05:11:21;;;;;;;6.10;1.15;;;10.30;99.90;;;;;;5039756;28;20045;-75
2022/09/16 05:13:47;;;;;;;6.90;1.50;;;10.30;99.90;;;;;;5043976;28;20037;-75
2022/09/16 05:16:15;;;;;;;9.50;1.10;;;10.20;99.90;;;;;;5059338;28;20121;-73
2022/09/16 05:18:42;;;;;;;9.35;1.40;;;10.30;99.90;;;;;;5054989;28;20057;-73
2022/09/16 05:21:11;;;;;;;11.32;1.63;;;10.20;99.90;;;;;;5057665;28;20128;-74
2022/09/16 05:23:37;;;;;;;8.80;1.25;;;10.20;99.90;;;;;;5057880;28;20059;-74
2022/09/16 05:26:11;;;;;;;11.68;1.45;;;10.10;99.90;;;;;;5058104;28;20036;-74
2022/09/16 05:28:38;;;;;;;10.02;1.40;;;10.10;99.90;;;;;;5060718;28;20036;-74
2022/09/16 05:31:14;;;;;;;8.98;1.45;;;10.10;99.90;;;;;;5055907;28;20037;-74
2022/09/16 05:33:42;;;;;;;11.93;1.45;;;10.10;99.90;;;;;;5057524;28;20064;-74
2022/09/16 05:36:11;;;;;;;8.25;1.15;;;10.10;99.90;;;;;;5053983;28;20464;-74
2022/09/16 05:38:37;;;;;;;12.25;1.67;;;10.10;99.90;;;;;;5061097;28;20049;-74
2022/09/16 05:41:04;;;;;;;7.45;1.13;;;10.10;99.90;;;;;;5040664;28;20047;-75
2022/09/16 05:43:30;;;;;;;13.48;1.38;;;10.10;99.90;;;;;;5057403;28;20045;-75
2022/09/16 05:45:56;;;;;;;13.60;1.45;;;10.10;99.90;;;;;;5038315;28;20135;-74
2022/09/16 05:48:23;;;;;;;11.80;1.40;;;10.10;99.90;;;;;;5061957;28;20123;-75
2022/09/16 05:51:01;;;;;;;6.72;1.02;;;10.50;99.90;;;;;;5061108;28;20037;-74
2022/09/16 05:53:28;;;;;;;12.48;1.48;;;10.10;99.90;;;;;;5061251;28;20048;-74
2022/09/16 05:55:56;;;;;;;11.30;1.60;;;10.20;99.90;;;;;;5043333;28;20139;-74
2022/09/16 05:58:22;;;;;;;9.40;1.67;;;10.30;99.90;;;;;;5056000;28;20068;-74
2022/09/16 06:00:48;;;;;;;9.68;1.48;;;10.40;99.90;;;;;;5057018;28;20036;-74
2022/09/16 06:03:14;;;;;;;10.10;1.70;;;10.90;99.90;;;;;;5039247;28;20069;-73
2022/09/16 06:05:40;;;;;;;8.55;1.67;;;10.80;99.90;;;;;;5059930;28;20087;-74
2022/09/16 06:08:05;;;;;;;11.82;1.33;;;10.80;99.90;;;;;;5057636;28;20040;-74
2022/09/16 06:10:35;;;;;;;13.02;1.52;;;10.80;99.90;;;;;;5042694;28;20044;-74
2022/09/16 06:13:01;;;;;;;10.30;1.40;;;10.80;99.90;;;;;;5056140;28;20060;-74
2022/09/16 06:15:27;;;;;;;13.25;1.50;;;10.80;99.90;;;;;;5038701;28;20049;-74
2022/09/16 06:17:53;;;;;;;12.82;1.27;;;10.80;99.90;;;;;;5056749;28;20064;-74
2022/09/16 06:20:19;;;;;;;12.80;2.05;;;10.80;99.90;;;;;;5061501;28;20048;-74
2022/09/16 06:22:45;;;;;;;10.50;2.00;;;10.80;99.90;;;;;;5071576;28;20049;-74
2022/09/16 06:25:11;;;;;;;12.27;1.48;;;10.80;99.90;;;;;;5056696;28;20113;-74
2022/09/16 06:27:36;;;;;;;8.73;1.75;;;10.80;99.90;;;;;;5051844;28;20032;-74
2022/09/16 06:30:03;;;;;;;8.68;1.63;;;10.80;99.90;;;;;;5056650;28;20041;-74
2022/09/16 06:32:32;;;;;;;11.52;1.70;;;10.80;99.90;;;;;;5041953;28;20045;-74
2022/09/16 06:34:58;;;;;;;9.30;1.45;;;10.90;99.90;;;;;;5058527;28;20052;-75
2022/09/16 06:37:25;;;;;;;10.93;1.60;;;10.90;99.90;;;;;;5061006;28;20460;-73
2022/09/16 06:39:50;;;;;;;12.20;1.83;;;10.90;99.90;;;;;;5060043;28;20242;-74
2022/09/16 06:42:16;;;;;;;12.93;2.17;;;11.00;99.90;;;;;;5059581;28;20627;-73
2022/09/16 06:44:42;;;;;;;12.65;1.60;;;11.10;99.90;;;;;;5059674;28;20105;-73
2022/09/16 06:47:08;;;;;;;17.33;2.13;;;11.10;99.90;;;;;;5058097;28;20032;-74
2022/09/16 06:49:34;;;;;;;14.23;1.40;;;11.40;99.90;;;;;;5056590;28;20080;-73
2022/09/16 06:52:02;;;;;;;10.77;1.80;;;11.20;99.90;;;;;;5058560;28;20500;-73
2022/09/16 06:54:28;;;;;;;17.25;1.92;;;11.30;99.90;;;;;;5058615;28;20040;-73
2022/09/16 06:56:54;;;;;;;13.40;2.50;;;11.30;99.90;;;;;;5057513;28;20062;-73
2022/09/16 06:59:19;;;;;;;10.90;1.65;;;11.70;99.90;;;;;;5056003;28;20135;-73
2022/09/16 07:01:45;;;;;;;12.02;2.08;;;11.50;99.90;;;;;;5058320;28;20048;-73
2022/09/16 07:04:12;;;;;;;15.00;1.75;;;11.60;99.90;;;;;;5058783;28;20421;-74
2022/09/16 07:06:38;;;;;;;12.45;1.48;;;11.70;99.90;;;;;;5057942;28;20119;-73
2022/09/16 07:09:04;;;;;;;12.50;1.70;;;11.80;99.90;;;;;;5058737;28;20039;-73
2022/09/16 07:11:30;;;;;;;9.70;1.98;;;11.90;99.90;;;;;;5061215;28;20076;-73
2022/09/16 07:13:57;;;;;;;11.45;1.60;;;11.80;99.90;;;;;;5058056;28;20075;-74
2022/09/16 07:16:24;;;;;;;12.15;1.67;;;11.80;99.90;;;;;;5058439;28;20049;-73
2022/09/16 07:18:55;;;;;;;9.43;1.13;;;11.90;99.90;;;;;;5061049;28;20036;-73
2022/09/16 07:21:24;;;;;;;13.90;2.00;;;12.10;99.90;;;;;;5062207;28;20049;-73
2022/09/16 07:23:50;;;;;;;10.45;1.55;;;12.20;99.90;;;;;;5028728;28;20060;-73
2022/09/16 07:26:19;;;;;;;8.90;1.40;;;12.40;99.90;;;;;;5021314;28;20462;-74
2022/09/16 07:28:46;;;;;;;11.60;1.50;;;12.60;99.90;;;;;;5023005;28;20381;-73
2022/09/16 07:31:17;;;;;;;14.13;1.58;;;12.80;99.90;;;;;;5020334;28;20625;-74
2022/09/16 07:33:46;;;;;;;9.32;1.92;;;13.00;99.90;;;;;;5054142;28;20060;-73
2022/09/16 07:36:15;;;;;;;10.77;1.60;;;13.30;99.90;;;;;;5054425;28;20193;-73
2022/09/16 07:38:41;;;;;;;12.60;1.63;;;13.40;99.90;;;;;;5021952;28;20069;-73
2022/09/16 07:41:19;;;;;;;12.85;1.70;;;13.50;99.90;;;;;;5022548;28;20084;-73
2022/09/16 07:43:46;;;;;;;13.20;1.50;;;13.50;99.90;;;;;;5021925;28;20132;-73
2022/09/16 07:46:15;;;;;;;15.45;1.73;;;13.40;99.90;;;;;;5020902;28;20275;-73
2022/09/16 07:48:41;;;;;;;15.55;1.92;;;13.30;99.90;;;;;;5019580;28;20038;-73
2022/09/16 07:51:10;;;;;;;10.60;1.67;;;13.30;99.90;;;;;;5023890;28;20072;-73
2022/09/16 07:53:37;;;;;;;9.15;1.67;;;13.30;99.90;;;;;;5037754;28;20057;-73
2022/09/16 07:56:04;;;;;;;10.82;1.77;;;13.30;99.90;;;;;;5021633;28;20567;-72
2022/09/16 07:58:31;;;;;;;15.48;2.15;;;13.20;99.90;;;;;;5017859;28;20055;-73
2022/09/16 08:00:57;;;;;;;18.48;2.15;;;13.20;99.90;;;;;;4998427;28;20117;-73
2022/09/16 08:03:23;;;;;;;19.00;2.30;;;13.20;99.90;;;;;;5017793;28;20041;-73
2022/09/16 08:05:49;;;;;;;18.98;2.70;;;13.10;99.90;;;;;;5021022;28;20037;-73
2022/09/16 08:08:15;;;;;;;18.58;2.40;;;13.40;99.90;;;;;;5002719;28;20042;-73
2022/09/16 08:10:41;;;;;;;15.65;2.08;;;13.30;99.90;;;;;;5037729;28;20055;-73
2022/09/16 08:13:07;;;;;;;16.30;2.28;;;13.40;99.90;;;;;;5004689;28;20041;-73
2022/09/16 08:15:33;;;;;;;13.90;2.03;;;13.60;99.90;;;;;;5036334;28;20045;-73
2022/09/16 08:17:59;;;;;;;17.15;2.53;;;13.70;99.90;;;;;;5021261;28;20752;-73
2022/09/16 08:20:25;;;;;;;14.10;2.33;;;13.90;99.90;;;;;;5021503;28;20466;-73
2022/09/16 08:22:52;;;;;;;19.80;2.10;;;14.00;99.90;;;;;;5019485;28;20174;-73
2022/09/16 08:25:17;;;;;;;17.77;2.75;;;14.10;99.90;;;;;;5020110;28;20558;-74
2022/09/16 08:27:44;;;;;;;15.48;2.10;;;14.30;99.90;;;;;;5019269;28;20133;-74
2022/09/16 08:30:10;;;;;;;15.30;2.67;;;14.40;99.90;;;;;;5019704;28;20048;-74
2022/09/16 08:32:36;;;;;;;12.98;2.00;;;14.50;99.90;;;;;;5019906;28;20056;-73
2022/09/16 08:35:02;;;;;;;14.15;2.00;;;14.60;99.90;;;;;;5038020;28;20477;-74
2022/09/16 08:37:28;;;;;;;10.38;1.98;;;14.70;99.90;;;;;;5023118;28;20108;-73
2022/09/16 08:39:53;;;;;;;10.65;1.50;;;14.80;99.90;;;;;;5022345;28;20471;-73
2022/09/16 08:42:22;;;;;;;9.63;1.38;;;14.90;99.90;;;;;;5022175;28;20051;-74
2022/09/16 08:45:08;;;;;;;13.50;1.60;;;15.00;99.90;;;;;;5023328;28;20060;-73
2022/09/16 08:47:41;;;;;;;9.70;1.65;;;15.10;99.90;;;;;;5023329;28;20041;-73
2022/09/16 08:50:17;;;;;;;11.95;1.50;;;15.20;99.90;;;;;;5022729;28;20045;-73
2022/09/16 08:52:44;;;;;;;12.18;1.70;;;15.30;99.90;;;;;;5051099;28;20083;-73
2022/09/16 08:55:23;;;;;;;12.38;1.88;;;15.30;99.90;;;;;;5022192;28;20056;-72
2022/09/16 08:58:05;;;;;;;15.13;2.28;;;15.40;99.90;;;;;;5021513;28;20077;-70
2022/09/16 09:00:31;;;;;;;12.77;2.00;;;15.40;99.90;;;;;;5021892;28;20052;-69
2022/09/16 09:03:13;;;;;;;18.98;2.45;;;15.50;99.90;;;;;;5024453;28;20098;-68
2022/09/16 09:05:42;;;;;;;12.57;2.42;;;15.50;99.90;;;;;;5022107;28;20144;-69
2022/09/16 09:08:35;;;;;;;16.13;2.42;;;15.50;99.90;;;;;;5023076;28;20041;-69
2022/09/16 09:11:15;;;;;;;13.82;2.72;;;15.50;99.90;;;;;;5023251;28;20111;-70
2022/09/16 09:14:26;;;;;;;13.23;2.05;;;15.60;99.90;;;;;;5031395;28;20056;-70
2022/09/16 09:17:06;;;;;;;9.57;2.13;;;15.60;99.90;;;;;;5017879;28;20046;-70
2022/09/16 09:19:53;;;;;;;14.13;1.80;;;15.60;99.90;;;;;;5018407;28;20061;-71
2022/09/16 09:22:32;;;;;;;10.77;1.73;;;15.70;99.90;;;;;;5023239;28;20037;-70
2022/09/16 09:25:20;;;;;;;19.05;2.53;;;15.70;99.90;;;;;;5023588;28;20410;-69
2022/09/16 09:28:24;;;;;;;13.85;2.25;;;15.90;99.90;;;;;;5014593;28;20040;-70
2022/09/16 09:31:11;;;;;;;15.75;2.17;;;15.80;99.90;;;;;;5036219;28;20049;-70
2022/09/16 09:33:56;;;;;;;12.10;2.17;;;15.70;99.90;;;;;;5030167;28;20120;-69
2022/09/16 09:36:40;;;;;;;11.43;1.60;;;15.60;99.90;;;;;;5020785;28;20067;-69
2022/09/16 09:39:12;;;;;;;10.30;1.73;;;15.60;99.90;;;;;;5020418;28;20059;-70
2022/09/16 09:42:10;;;;;;;13.18;2.25;;;15.60;99.90;;;;;;5019162;28;20383;-69
2022/09/16 09:44:40;;;;;;;13.18;2.38;;;15.70;99.90;;;;;;4976050;28;20426;-70
2022/09/16 09:47:30;;;;;;;13.73;2.25;;;15.70;99.90;;;;;;5049963;28;20056;-69
2022/09/16 09:50:01;;;;;;;12.82;2.25;;;15.70;99.90;;;;;;5004536;28;20134;-69
2022/09/16 09:52:43;;;;;;;11.80;2.13;;;15.80;99.90;;;;;;5019942;28;20092;-69
2022/09/16 09:55:20;;;;;;;16.73;2.28;;;15.80;99.90;;;;;;5019888;28;20079;-70
2022/09/16 09:58:05;;;;;;;17.23;2.20;;;15.90;99.90;;;;;;5039038;28;20106;-70
2022/09/16 10:00:31;;;;;;;14.30;1.63;;;15.90;99.90;;;;;;5019357;28;21038;-69
2022/09/16 10:03:17;;;;;;;12.60;2.10;;;15.90;99.90;;;;;;5036479;28;20056;-70
2022/09/16 10:05:45;;;;;;;16.08;2.40;;;15.90;99.90;;;;;;5020736;28;20057;-70
2022/09/16 10:08:21;;;;;;;13.95;2.03;;;15.90;99.90;;;;;;5034161;28;20041;-69
2022/09/16 10:11:14;;;;;;;11.63;1.75;;;15.80;99.90;;;;;;5020543;28;20418;-69
2022/09/16 10:13:54;;;;;;;9.23;1.60;;;15.70;99.90;;;;;;5038878;28;20044;-70
2022/09/16 10:16:24;;;;;;;10.30;1.88;;;15.70;99.90;;;;;;5037086;28;20685;-70
2022/09/16 10:19:18;;;;;;;10.70;1.92;;;15.70;99.90;;;;;;5021790;28;20138;-70
2022/09/16 10:21:52;;;;;;;9.27;1.60;;;15.80;99.90;;;;;;5015277;28;20053;-70
2022/09/16 10:24:34;;;;;;;7.47;1.40;;;15.90;99.90;;;;;;5018272;28;20046;-70
2022/09/16 10:27:16;;;;;;;10.57;1.95;;;15.90;99.90;;;;;;5026286;28;20481;-70
2022/09/16 10:29:42;;;;;;;15.40;2.03;;;16.10;99.90;;;;;;5019926;28;20050;-69
2022/09/16 10:32:12;;;;;;;11.93;1.90;;;16.10;99.90;;;;;;5012755;28;20052;-70
2022/09/16 10:34:41;;;;;;;15.03;1.93;;;16.10;99.90;;;;;;5013788;28;20076;-69
2022/09/16 10:37:12;;;;;;;16.50;1.85;;;16.10;99.90;;;;;;5006530;28;20548;-69
2022/09/16 10:39:52;;;;;;;9.00;1.50;;;16.10;99.90;;;;;;5033665;28;20132;-70
2022/09/16 10:42:23;;;;;;;12.98;1.98;;;15.90;99.90;;;;;;5013549;28;20037;-70
2022/09/16 10:44:52;;;;;;;11.52;2.30;;;15.80;99.90;;;;;;5012416;28;20045;-70
2022/09/16 10:47:20;;;;;;;11.95;1.65;;;15.90;99.90;;;;;;5016703;28;20171;-69
2022/09/16 10:49:50;;;;;;;8.25;1.35;;;15.90;99.90;;;;;;5021616;28;20082;-69
2022/09/16 10:52:27;;;;;;;9.00;1.20;;;15.90;99.90;;;;;;5017257;28;20060;-70
2022/09/16 10:54:53;;;;;;;10.73;1.73;;;15.90;99.90;;;;;;5023169;28;20052;-70
2022/09/16 10:57:27;;;;;;;12.23;1.42;;;15.90;99.90;;;;;;5022982;28;20116;-69
2022/09/16 10:59:56;;;;;;;7.82;1.50;;;16.00;99.90;;;;;;5039377;28;20160;-70
2022/09/16 11:02:48;;;;;;;8.50;1.48;;;16.00;99.90;;;;;;5029527;28;20049;-69
2022/09/16 11:05:29;;;;;;;10.98;1.40;;;16.10;99.90;;;;;;5008975;28;20156;-68
2022/09/16 11:08:17;;;;;;;10.90;1.85;;;16.20;99.90;;;;;;5040257;28;20053;-69
2022/09/16 11:10:46;;;;;;;16.33;1.70;;;16.30;99.90;;;;;;5004835;28;20053;-69
2022/09/16 11:13:30;;;;;;;12.85;1.73;;;16.40;99.90;;;;;;5040783;28;20057;-68
2022/09/16 11:16:30;;;;;;;8.98;1.73;;;16.40;99.90;;;;;;5038457;28;20061;-69
2022/09/16 11:19:17;;;;;;;9.20;1.67;;;16.30;99.90;;;;;;5028362;28;20056;-70
2022/09/16 11:22:02;;;;;;;10.55;1.80;;;16.30;99.90;;;;;;5041248;28;20060;-70
2022/09/16 11:24:49;;;;;;;10.10;2.28;;;16.30;99.90;;;;;;5038824;28;20041;-69
2022/09/16 11:27:43;;;;;;;13.18;1.80;;;16.40;99.90;;;;;;5023888;28;20554;-69
2022/09/16 11:30:21;;;;;;;21.65;2.50;;;16.50;99.90;;;;;;5022823;28;20037;-71
2022/09/16 11:32:59;;;;;;;12.95;1.77;;;16.50;99.90;;;;;;5036820;28;20104;-70
2022/09/16 11:35:46;;;;;;;14.80;2.20;;;16.60;99.90;;;;;;5024140;28;20413;-70
2022/09/16 11:38:37;;;;;;;12.55;1.75;;;16.60;99.90;;;;;;5033044;28;20174;-71
2022/09/16 11:41:21;;;;;;;;;;;16.60;99.90;;;;;;5035950;28;20069;-70
2022/09/16 11:43:58;;;;;;;9.63;2.10;;;16.60;99.90;;;;;;5040164;28;19935;-70
2022/09/16 11:46:31;;;;;;;13.30;2.65;;;16.60;99.90;;;;;;5023925;28;20060;-71
2022/09/16 11:49:21;;;;;;;11.38;2.05;;;16.60;99.90;;;;;;5024773;28;20052;-70
2022/09/16 11:52:03;;;;;;;15.57;2.50;;;16.70;99.90;;;;;;5024709;28;20052;-71
2022/09/16 11:54:56;;;;;;;12.15;1.90;;;16.70;99.90;;;;;;5024234;28;20140;-69
2022/09/16 11:57:28;;;;;;;12.55;2.67;;;16.70;99.90;;;;;;5054216;28;20045;-70
2022/09/16 12:00:08;;;;;;;14.00;2.00;;;16.70;99.90;;;;;;5040872;28;20646;-70
2022/09/16 12:03:00;;;;;;;13.80;2.63;;;16.70;99.90;;;;;;5025793;28;20454;-70
2022/09/16 12:05:34;;;;;;;11.73;2.00;;;16.80;99.90;;;;;;5026135;28;20083;-71
2022/09/16 12:08:12;;;;;;;12.45;2.22;;;16.90;99.90;;;;;;5002922;28;20052;-70
2022/09/16 12:10:52;;;;;;;10.55;1.90;;;16.90;99.90;;;;;;5038103;28;20049;-71
2022/09/16 12:13:25;;;;;;;21.00;2.55;;;16.90;99.90;;;;;;5024110;28;20049;-70
2022/09/16 12:15:57;;;;;;;13.82;2.47;;;17.00;99.90;;;;;;5020548;28;20049;-70
2022/09/16 12:18:29;;;;;;;20.55;3.13;;;17.00;99.90;;;;;;5021414;28;20138;-70
2022/09/16 12:21:23;;;;;;;15.73;2.20;;;17.10;99.90;;;;;;5022533;28;20057;-71
2022/09/16 12:24:05;;;;;;;12.35;1.92;;;17.00;99.90;;;;;;5013261;28;20053;-71
2022/09/16 12:26:42;;;;;;;12.77;2.33;;;17.00;99.90;;;;;;5029053;28;20053;-71
2022/09/16 12:29:11;;;;;;;17.65;2.92;;;16.80;99.90;;;;;;5012229;28;20116;-71
2022/09/16 12:31:50;;;;;;;17.25;2.25;;;16.80;99.90;;;;;;5028265;28;20516;-71
2022/09/16 12:34:24;;;;;;;17.30;3.15;;;16.80;99.90;;;;;;5021404;28;20124;-70
2022/09/16 12:36:59;;;;;;;18.10;2.85;;;16.70;99.90;;;;;;5039025;28;20592;-70
2022/09/16 12:39:25;;;;;;;17.48;3.08;;;16.70;99.90;;;;;;5040296;28;20060;-70
2022/09/16 12:42:09;;;;;;;15.98;2.70;;;16.70;99.90;;;;;;5025556;28;20037;-71
2022/09/16 12:45:00;;;;;;;17.80;2.83;;;16.60;99.90;;;;;;5023232;28;20730;-70
2022/09/16 12:47:35;;;;;;;13.23;2.15;;;16.60;99.90;;;;;;5012616;28;20049;-70
2022/09/16 12:50:22;;;;;;;17.42;2.42;;;16.60;99.90;;;;;;4999257;28;20054;-71
2022/09/16 12:53:35;;;;;;;12.25;2.08;;;16.50;99.90;;;;;;5012717;28;20124;-70
2022/09/16 12:56:29;;;;;;;11.10;2.17;;;16.50;99.90;;;;;;5017709;28;20140;-70
2022/09/16 12:59:31;;;;;;;11.30;1.65;;;16.50;99.90;;;;;;5016074;28;20059;-70
2022/09/16 13:02:03;;;;;;;15.88;2.25;;;16.50;99.90;;;;;;5030839;28;20041;-70
2022/09/16 13:04:51;;;;;;;5.45;1.20;;;16.40;99.90;;;;;;5000629;28;20522;-70
2022/09/16 13:07:37;;;;;;;11.27;1.40;;;16.30;99.90;;;;;;5031895;28;20094;-70
2022/09/16 13:10:19;;;;;;;5.97;1.27;;;16.30;99.90;;;;;;5039067;28;20041;-71
2022/09/16 13:12:55;;;;;;;6.18;1.20;;;16.20;99.90;;;;;;5021964;28;20049;-71
2022/09/16 13:15:27;;;;;;;9.90;1.60;;;16.20;99.90;;;;;;5023150;28;20052;-70
2022/09/16 13:17:53;;;;;;;9.52;1.25;;;16.20;99.90;;;;;;5036722;28;20076;-70
2022/09/16 13:20:33;;;;;;;8.25;1.38;;;16.10;99.90;;;;;;5022975;28;20099;-70